sensor_id;sensor_type;location;lat;lon;timestamp;P1;durP1;ratioP1;P2;durP2;ratioP2
70796;SDS011;63842;52.144;5.360;2022-10-16T00:01:09;6.88;;;1.60;;
70796;SDS011;63842;52.144;5.360;2022-10-16T00:03:38;5.70;;;1.75;;
70796;SDS011;63842;52.144;5.360;2022-10-16T00:06:05;7.70;;;1.60;;
70796;SDS011;63842;52.144;5.360;2022-10-16T00:08:33;5.95;;;1.60;;
70796;SDS011;63842;52.144;5.360;2022-10-16T00:11:20;8.00;;;1.90;;
70796;SDS011;63842;52.144;5.360;2022-10-16T00:13:49;6.05;;;2.15;;
70796;SDS011;63842;52.144;5.360;2022-10-16T00:16:17;6.32;;;1.80;;
70796;SDS011;63842;52.144;5.360;2022-10-16T00:18:44;6.85;;;1.88;;
70796;SDS011;63842;52.144;5.360;2022-10-16T00:21:12;5.95;;;1.80;;
70796;SDS011;63842;52.144;5.360;2022-10-16T00:23:40;7.00;;;1.90;;
70796;SDS011;63842;52.144;5.360;2022-10-16T00:26:08;6.68;;;2.05;;
70796;SDS011;63842;52.144;5.360;2022-10-16T00:28:36;9.32;;;1.90;;
70796;SDS011;63842;52.144;5.360;2022-10-16T00:31:08;7.97;;;1.90;;
70796;SDS011;63842;52.144;5.360;2022-10-16T00:33:35;8.13;;;1.92;;
70796;SDS011;63842;52.144;5.360;2022-10-16T00:36:03;6.05;;;2.00;;
70796;SDS011;63842;52.144;5.360;2022-10-16T00:38:31;5.20;;;1.90;;
70796;SDS011;63842;52.144;5.360;2022-10-16T00:40:58;6.20;;;1.90;;
70796;SDS011;63842;52.144;5.360;2022-10-16T00:43:33;5.63;;;1.90;;
70796;SDS011;63842;52.144;5.360;2022-10-16T00:46:01;6.28;;;2.10;;
70796;SDS011;63842;52.144;5.360;2022-10-16T00:48:29;7.40;;;2.22;;
70796;SDS011;63842;52.144;5.360;2022-10-16T00:50:57;9.15;;;2.20;;
70796;SDS011;63842;52.144;5.360;2022-10-16T00:53:25;7.63;;;2.47;;
70796;SDS011;63842;52.144;5.360;2022-10-16T00:55:52;6.57;;;1.90;;
70796;SDS011;63842;52.144;5.360;2022-10-16T00:58:20;9.70;;;2.30;;
70796;SDS011;63842;52.144;5.360;2022-10-16T01:00:47;10.20;;;2.10;;
70796;SDS011;63842;52.144;5.360;2022-10-16T01:03:22;6.20;;;2.03;;
70796;SDS011;63842;52.144;5.360;2022-10-16T01:05:52;6.15;;;2.08;;
70796;SDS011;63842;52.144;5.360;2022-10-16T01:08:22;6.00;;;2.08;;
70796;SDS011;63842;52.144;5.360;2022-10-16T01:11:57;6.72;;;2.35;;
70796;SDS011;63842;52.144;5.360;2022-10-16T01:13:51;5.40;;;2.28;;
70796;SDS011;63842;52.144;5.360;2022-10-16T01:16:40;7.90;;;2.20;;
70796;SDS011;63842;52.144;5.360;2022-10-16T01:19:23;6.90;;;2.17;;
70796;SDS011;63842;52.144;5.360;2022-10-16T01:21:53;6.07;;;2.30;;
70796;SDS011;63842;52.144;5.360;2022-10-16T01:29:27;5.88;;;2.10;;
70796;SDS011;63842;52.144;5.360;2022-10-16T01:31:58;5.68;;;2.10;;
70796;SDS011;63842;52.144;5.360;2022-10-16T01:34:33;6.55;;;2.05;;
70796;SDS011;63842;52.144;5.360;2022-10-16T01:37:04;5.85;;;2.10;;
70796;SDS011;63842;52.144;5.360;2022-10-16T01:39:33;6.47;;;2.17;;
70796;SDS011;63842;52.144;5.360;2022-10-16T01:42:09;6.22;;;2.30;;
70796;SDS011;63842;52.144;5.360;2022-10-16T01:44:38;5.47;;;2.05;;
70796;SDS011;63842;52.144;5.360;2022-10-16T01:47:07;7.82;;;2.50;;
70796;SDS011;63842;52.144;5.360;2022-10-16T01:49:36;6.65;;;2.30;;
70796;SDS011;63842;52.144;5.360;2022-10-16T01:52:06;6.88;;;2.17;;
70796;SDS011;63842;52.144;5.360;2022-10-16T01:54:35;7.00;;;2.20;;
70796;SDS011;63842;52.144;5.360;2022-10-16T01:59:36;6.70;;;2.25;;
70796;SDS011;63842;52.144;5.360;2022-10-16T02:02:06;7.25;;;2.35;;
70796;SDS011;63842;52.144;5.360;2022-10-16T02:07:04;9.65;;;2.95;;
70796;SDS011;63842;52.144;5.360;2022-10-16T02:09:34;8.75;;;2.40;;
70796;SDS011;63842;52.144;5.360;2022-10-16T02:12:05;7.70;;;2.50;;
70796;SDS011;63842;52.144;5.360;2022-10-16T02:14:33;6.53;;;2.40;;
70796;SDS011;63842;52.144;5.360;2022-10-16T02:17:00;7.30;;;2.38;;
70796;SDS011;63842;52.144;5.360;2022-10-16T02:19:27;7.22;;;2.20;;
70796;SDS011;63842;52.144;5.360;2022-10-16T02:21:56;7.25;;;2.58;;
70796;SDS011;63842;52.144;5.360;2022-10-16T02:29:26;6.35;;;2.20;;
70796;SDS011;63842;52.144;5.360;2022-10-16T02:32:01;6.50;;;2.30;;
70796;SDS011;63842;52.144;5.360;2022-10-16T02:34:30;5.25;;;2.30;;
70796;SDS011;63842;52.144;5.360;2022-10-16T02:36:59;9.48;;;2.63;;
70796;SDS011;63842;52.144;5.360;2022-10-16T02:39:28;6.68;;;2.55;;
70796;SDS011;63842;52.144;5.360;2022-10-16T02:41:55;9.63;;;2.25;;
70796;SDS011;63842;52.144;5.360;2022-10-16T02:44:23;6.05;;;2.30;;
70796;SDS011;63842;52.144;5.360;2022-10-16T02:46:50;7.40;;;2.40;;
70796;SDS011;63842;52.144;5.360;2022-10-16T02:49:17;7.28;;;2.30;;
70796;SDS011;63842;52.144;5.360;2022-10-16T02:51:45;7.50;;;2.40;;
70796;SDS011;63842;52.144;5.360;2022-10-16T02:54:12;7.15;;;2.17;;
70796;SDS011;63842;52.144;5.360;2022-10-16T02:56:39;6.47;;;2.45;;
70796;SDS011;63842;52.144;5.360;2022-10-16T02:59:06;7.20;;;2.30;;
70796;SDS011;63842;52.144;5.360;2022-10-16T03:01:34;5.97;;;2.08;;
70796;SDS011;63842;52.144;5.360;2022-10-16T03:04:02;6.65;;;2.17;;
70796;SDS011;63842;52.144;5.360;2022-10-16T03:06:29;7.18;;;2.38;;
70796;SDS011;63842;52.144;5.360;2022-10-16T03:08:57;7.40;;;2.15;;
70796;SDS011;63842;52.144;5.360;2022-10-16T03:11:24;8.05;;;2.53;;
70796;SDS011;63842;52.144;5.360;2022-10-16T03:13:52;5.50;;;2.28;;
70796;SDS011;63842;52.144;5.360;2022-10-16T03:16:19;7.05;;;2.10;;
70796;SDS011;63842;52.144;5.360;2022-10-16T03:18:49;6.97;;;2.30;;
70796;SDS011;63842;52.144;5.360;2022-10-16T03:21:17;5.55;;;2.15;;
70796;SDS011;63842;52.144;5.360;2022-10-16T03:23:44;7.00;;;2.15;;
70796;SDS011;63842;52.144;5.360;2022-10-16T03:26:11;7.07;;;2.10;;
70796;SDS011;63842;52.144;5.360;2022-10-16T03:28:39;6.40;;;2.20;;
70796;SDS011;63842;52.144;5.360;2022-10-16T03:31:06;6.75;;;2.05;;
70796;SDS011;63842;52.144;5.360;2022-10-16T03:33:34;6.53;;;2.22;;
70796;SDS011;63842;52.144;5.360;2022-10-16T03:36:01;5.63;;;2.00;;
70796;SDS011;63842;52.144;5.360;2022-10-16T03:38:29;6.22;;;2.03;;
70796;SDS011;63842;52.144;5.360;2022-10-16T03:40:56;6.18;;;2.17;;
70796;SDS011;63842;52.144;5.360;2022-10-16T03:43:23;6.28;;;2.10;;
70796;SDS011;63842;52.144;5.360;2022-10-16T03:45:51;4.30;;;1.90;;
70796;SDS011;63842;52.144;5.360;2022-10-16T03:48:18;6.93;;;2.03;;
70796;SDS011;63842;52.144;5.360;2022-10-16T03:50:46;6.20;;;2.08;;
70796;SDS011;63842;52.144;5.360;2022-10-16T03:53:14;7.82;;;2.08;;
70796;SDS011;63842;52.144;5.360;2022-10-16T03:55:42;6.55;;;1.80;;
70796;SDS011;63842;52.144;5.360;2022-10-16T03:58:09;5.95;;;2.03;;
70796;SDS011;63842;52.144;5.360;2022-10-16T04:00:43;5.22;;;2.05;;
70796;SDS011;63842;52.144;5.360;2022-10-16T04:03:11;6.40;;;1.98;;
70796;SDS011;63842;52.144;5.360;2022-10-16T04:05:39;5.80;;;1.85;;
70796;SDS011;63842;52.144;5.360;2022-10-16T04:08:06;5.68;;;2.05;;
70796;SDS011;63842;52.144;5.360;2022-10-16T04:10:33;7.05;;;1.65;;
70796;SDS011;63842;52.144;5.360;2022-10-16T04:13:00;5.57;;;1.80;;
70796;SDS011;63842;52.144;5.360;2022-10-16T04:15:28;6.30;;;1.95;;
70796;SDS011;63842;52.144;5.360;2022-10-16T04:17:55;4.63;;;1.90;;
70796;SDS011;63842;52.144;5.360;2022-10-16T04:20:22;6.85;;;2.10;;
70796;SDS011;63842;52.144;5.360;2022-10-16T04:22:49;4.30;;;1.60;;
70796;SDS011;63842;52.144;5.360;2022-10-16T04:25:16;7.00;;;1.70;;
70796;SDS011;63842;52.144;5.360;2022-10-16T04:27:44;5.15;;;1.85;;
70796;SDS011;63842;52.144;5.360;2022-10-16T04:30:11;5.75;;;1.55;;
70796;SDS011;63842;52.144;5.360;2022-10-16T04:32:39;5.45;;;1.80;;
70796;SDS011;63842;52.144;5.360;2022-10-16T04:35:06;5.90;;;1.70;;
70796;SDS011;63842;52.144;5.360;2022-10-16T04:37:34;5.32;;;1.73;;
70796;SDS011;63842;52.144;5.360;2022-10-16T04:40:01;4.32;;;1.80;;
70796;SDS011;63842;52.144;5.360;2022-10-16T04:42:28;4.60;;;1.70;;
70796;SDS011;63842;52.144;5.360;2022-10-16T04:44:56;4.78;;;1.60;;
70796;SDS011;63842;52.144;5.360;2022-10-16T04:47:23;4.45;;;1.60;;
70796;SDS011;63842;52.144;5.360;2022-10-16T04:49:51;4.97;;;1.67;;
70796;SDS011;63842;52.144;5.360;2022-10-16T04:52:18;5.22;;;1.60;;
70796;SDS011;63842;52.144;5.360;2022-10-16T04:54:47;3.65;;;1.40;;
70796;SDS011;63842;52.144;5.360;2022-10-16T04:57:16;4.75;;;1.70;;
70796;SDS011;63842;52.144;5.360;2022-10-16T04:59:43;6.43;;;1.77;;
70796;SDS011;63842;52.144;5.360;2022-10-16T05:02:11;4.88;;;1.65;;
70796;SDS011;63842;52.144;5.360;2022-10-16T05:04:38;4.50;;;1.63;;
70796;SDS011;63842;52.144;5.360;2022-10-16T05:07:05;6.07;;;2.10;;
70796;SDS011;63842;52.144;5.360;2022-10-16T05:09:32;6.57;;;1.92;;
70796;SDS011;63842;52.144;5.360;2022-10-16T05:12:00;5.22;;;1.70;;
70796;SDS011;63842;52.144;5.360;2022-10-16T05:14:27;5.97;;;1.65;;
70796;SDS011;63842;52.144;5.360;2022-10-16T05:16:54;7.53;;;1.98;;
70796;SDS011;63842;52.144;5.360;2022-10-16T05:19:21;6.03;;;1.80;;
70796;SDS011;63842;52.144;5.360;2022-10-16T05:21:53;7.50;;;1.90;;
70796;SDS011;63842;52.144;5.360;2022-10-16T05:24:20;5.35;;;2.00;;
70796;SDS011;63842;52.144;5.360;2022-10-16T05:26:47;6.25;;;1.88;;
70796;SDS011;63842;52.144;5.360;2022-10-16T05:29:14;5.30;;;1.80;;
70796;SDS011;63842;52.144;5.360;2022-10-16T05:31:42;4.47;;;1.70;;
70796;SDS011;63842;52.144;5.360;2022-10-16T05:34:09;5.07;;;1.63;;
70796;SDS011;63842;52.144;5.360;2022-10-16T05:36:36;4.47;;;1.52;;
70796;SDS011;63842;52.144;5.360;2022-10-16T05:39:03;5.22;;;1.80;;
70796;SDS011;63842;52.144;5.360;2022-10-16T05:41:30;3.92;;;1.65;;
70796;SDS011;63842;52.144;5.360;2022-10-16T05:43:58;4.68;;;1.70;;
70796;SDS011;63842;52.144;5.360;2022-10-16T05:46:25;7.07;;;1.90;;
70796;SDS011;63842;52.144;5.360;2022-10-16T05:48:52;7.35;;;2.20;;
70796;SDS011;63842;52.144;5.360;2022-10-16T05:51:19;7.53;;;2.00;;
70796;SDS011;63842;52.144;5.360;2022-10-16T05:53:46;5.25;;;1.90;;
70796;SDS011;63842;52.144;5.360;2022-10-16T05:56:14;6.88;;;1.90;;
70796;SDS011;63842;52.144;5.360;2022-10-16T05:58:41;6.07;;;1.80;;
70796;SDS011;63842;52.144;5.360;2022-10-16T06:01:12;3.30;;;1.60;;
70796;SDS011;63842;52.144;5.360;2022-10-16T06:03:39;6.30;;;1.70;;
70796;SDS011;63842;52.144;5.360;2022-10-16T06:06:07;5.60;;;1.92;;
70796;SDS011;63842;52.144;5.360;2022-10-16T06:08:38;5.55;;;1.92;;
70796;SDS011;63842;52.144;5.360;2022-10-16T06:11:06;7.40;;;1.95;;
70796;SDS011;63842;52.144;5.360;2022-10-16T06:13:34;5.68;;;1.90;;
70796;SDS011;63842;52.144;5.360;2022-10-16T06:16:01;6.57;;;1.90;;
70796;SDS011;63842;52.144;5.360;2022-10-16T06:18:29;5.07;;;1.90;;
70796;SDS011;63842;52.144;5.360;2022-10-16T06:20:57;7.57;;;2.00;;
70796;SDS011;63842;52.144;5.360;2022-10-16T06:23:25;6.07;;;1.90;;
70796;SDS011;63842;52.144;5.360;2022-10-16T06:25:52;6.03;;;2.10;;
70796;SDS011;63842;52.144;5.360;2022-10-16T06:28:19;9.65;;;1.90;;
70796;SDS011;63842;52.144;5.360;2022-10-16T06:30:47;5.53;;;2.00;;
70796;SDS011;63842;52.144;5.360;2022-10-16T06:33:14;7.05;;;2.20;;
70796;SDS011;63842;52.144;5.360;2022-10-16T06:35:41;5.20;;;2.00;;
70796;SDS011;63842;52.144;5.360;2022-10-16T06:38:08;6.32;;;2.30;;
70796;SDS011;63842;52.144;5.360;2022-10-16T06:40:36;4.65;;;2.15;;
70796;SDS011;63842;52.144;5.360;2022-10-16T06:43:03;5.55;;;1.80;;
70796;SDS011;63842;52.144;5.360;2022-10-16T06:45:30;6.30;;;1.95;;
70796;SDS011;63842;52.144;5.360;2022-10-16T06:47:57;6.93;;;2.35;;
70796;SDS011;63842;52.144;5.360;2022-10-16T06:50:24;8.57;;;2.65;;
70796;SDS011;63842;52.144;5.360;2022-10-16T06:52:52;6.65;;;2.20;;
70796;SDS011;63842;52.144;5.360;2022-10-16T06:55:19;5.20;;;2.05;;
70796;SDS011;63842;52.144;5.360;2022-10-16T06:57:46;5.18;;;2.20;;
70796;SDS011;63842;52.144;5.360;2022-10-16T07:00:14;7.53;;;2.15;;
70796;SDS011;63842;52.144;5.360;2022-10-16T07:02:42;7.18;;;2.30;;
70796;SDS011;63842;52.144;5.360;2022-10-16T07:05:09;6.80;;;2.00;;
70796;SDS011;63842;52.144;5.360;2022-10-16T07:07:36;7.88;;;2.40;;
70796;SDS011;63842;52.144;5.360;2022-10-16T07:10:03;7.13;;;1.92;;
70796;SDS011;63842;52.144;5.360;2022-10-16T07:12:31;6.28;;;2.00;;
70796;SDS011;63842;52.144;5.360;2022-10-16T07:14:58;12.68;;;2.25;;
70796;SDS011;63842;52.144;5.360;2022-10-16T07:17:25;6.00;;;2.20;;
70796;SDS011;63842;52.144;5.360;2022-10-16T07:19:52;6.38;;;2.30;;
70796;SDS011;63842;52.144;5.360;2022-10-16T07:22:21;5.47;;;1.90;;
70796;SDS011;63842;52.144;5.360;2022-10-16T07:24:49;6.75;;;1.88;;
70796;SDS011;63842;52.144;5.360;2022-10-16T07:27:18;9.30;;;2.38;;
70796;SDS011;63842;52.144;5.360;2022-10-16T07:29:45;5.30;;;1.70;;
70796;SDS011;63842;52.144;5.360;2022-10-16T07:32:12;5.28;;;1.73;;
70796;SDS011;63842;52.144;5.360;2022-10-16T07:34:40;5.53;;;1.90;;
70796;SDS011;63842;52.144;5.360;2022-10-16T07:37:07;5.18;;;1.83;;
70796;SDS011;63842;52.144;5.360;2022-10-16T07:39:34;6.55;;;1.60;;
70796;SDS011;63842;52.144;5.360;2022-10-16T07:42:01;5.55;;;1.88;;
70796;SDS011;63842;52.144;5.360;2022-10-16T07:44:29;7.35;;;1.77;;
70796;SDS011;63842;52.144;5.360;2022-10-16T07:46:56;6.10;;;1.90;;
70796;SDS011;63842;52.144;5.360;2022-10-16T07:49:24;3.42;;;1.50;;
70796;SDS011;63842;52.144;5.360;2022-10-16T07:51:51;6.32;;;1.63;;
70796;SDS011;63842;52.144;5.360;2022-10-16T07:54:19;5.95;;;1.55;;
70796;SDS011;63842;52.144;5.360;2022-10-16T07:56:46;7.00;;;1.42;;
70796;SDS011;63842;52.144;5.360;2022-10-16T07:59:13;7.25;;;1.65;;
70796;SDS011;63842;52.144;5.360;2022-10-16T08:01:40;5.10;;;1.75;;
70796;SDS011;63842;52.144;5.360;2022-10-16T08:04:10;5.78;;;2.05;;
70796;SDS011;63842;52.144;5.360;2022-10-16T08:06:38;6.25;;;1.90;;
70796;SDS011;63842;52.144;5.360;2022-10-16T08:09:07;5.75;;;1.75;;
70796;SDS011;63842;52.144;5.360;2022-10-16T08:11:34;7.60;;;1.98;;
70796;SDS011;63842;52.144;5.360;2022-10-16T08:14:01;5.00;;;1.80;;
70796;SDS011;63842;52.144;5.360;2022-10-16T08:16:29;6.88;;;2.10;;
70796;SDS011;63842;52.144;5.360;2022-10-16T08:18:56;8.32;;;2.00;;
70796;SDS011;63842;52.144;5.360;2022-10-16T08:21:23;6.03;;;2.25;;
70796;SDS011;63842;52.144;5.360;2022-10-16T08:23:50;8.40;;;2.30;;
70796;SDS011;63842;52.144;5.360;2022-10-16T08:26:23;10.70;;;2.65;;
70796;SDS011;63842;52.144;5.360;2022-10-16T08:28:50;7.45;;;2.20;;
70796;SDS011;63842;52.144;5.360;2022-10-16T08:31:18;6.55;;;2.20;;
70796;SDS011;63842;52.144;5.360;2022-10-16T08:33:46;7.85;;;2.15;;
70796;SDS011;63842;52.144;5.360;2022-10-16T08:36:14;7.10;;;1.83;;
70796;SDS011;63842;52.144;5.360;2022-10-16T08:38:42;6.72;;;2.00;;
70796;SDS011;63842;52.144;5.360;2022-10-16T08:46:14;6.97;;;1.90;;
70796;SDS011;63842;52.144;5.360;2022-10-16T08:48:50;7.75;;;1.92;;
70796;SDS011;63842;52.144;5.360;2022-10-16T08:51:19;7.10;;;2.13;;
70796;SDS011;63842;52.144;5.360;2022-10-16T08:56:18;7.10;;;2.20;;
70796;SDS011;63842;52.144;5.360;2022-10-16T08:58:46;8.73;;;2.03;;
70796;SDS011;63842;52.144;5.360;2022-10-16T09:01:14;6.22;;;2.20;;
70796;SDS011;63842;52.144;5.360;2022-10-16T09:19:46;8.00;;;1.88;;
70796;SDS011;63842;52.144;5.360;2022-10-16T09:22:17;6.93;;;1.95;;
70796;SDS011;63842;52.144;5.360;2022-10-16T09:24:45;6.88;;;2.03;;
70796;SDS011;63842;52.144;5.360;2022-10-16T09:27:12;8.77;;;1.63;;
70796;SDS011;63842;52.144;5.360;2022-10-16T09:29:40;9.57;;;1.85;;
70796;SDS011;63842;52.144;5.360;2022-10-16T09:32:12;9.93;;;1.70;;
70796;SDS011;63842;52.144;5.360;2022-10-16T09:34:42;10.63;;;1.70;;
70796;SDS011;63842;52.144;5.360;2022-10-16T09:37:12;8.02;;;1.60;;
70796;SDS011;63842;52.144;5.360;2022-10-16T09:39:44;11.48;;;1.90;;
70796;SDS011;63842;52.144;5.360;2022-10-16T09:42:31;5.20;;;1.60;;
70796;SDS011;63842;52.144;5.360;2022-10-16T09:44:59;9.75;;;1.77;;
70796;SDS011;63842;52.144;5.360;2022-10-16T09:47:27;8.70;;;2.10;;
70796;SDS011;63842;52.144;5.360;2022-10-16T09:49:56;7.95;;;1.70;;
70796;SDS011;63842;52.144;5.360;2022-10-16T09:52:25;6.70;;;1.55;;
70796;SDS011;63842;52.144;5.360;2022-10-16T09:57:21;5.30;;;1.77;;
70796;SDS011;63842;52.144;5.360;2022-10-16T09:59:50;9.25;;;2.13;;
70796;SDS011;63842;52.144;5.360;2022-10-16T10:02:36;7.97;;;2.25;;
70796;SDS011;63842;52.144;5.360;2022-10-16T10:05:05;9.63;;;1.70;;
70796;SDS011;63842;52.144;5.360;2022-10-16T10:07:33;8.32;;;1.60;;
70796;SDS011;63842;52.144;5.360;2022-10-16T10:10:03;9.00;;;2.00;;
70796;SDS011;63842;52.144;5.360;2022-10-16T10:12:31;7.18;;;1.88;;
70796;SDS011;63842;52.144;5.360;2022-10-16T10:15:04;7.28;;;1.80;;
70796;SDS011;63842;52.144;5.360;2022-10-16T10:17:33;8.40;;;1.90;;
70796;SDS011;63842;52.144;5.360;2022-10-16T10:20:13;11.63;;;2.10;;
70796;SDS011;63842;52.144;5.360;2022-10-16T10:22:43;9.82;;;2.40;;
70796;SDS011;63842;52.144;5.360;2022-10-16T10:35:19;11.20;;;1.80;;
70796;SDS011;63842;52.144;5.360;2022-10-16T10:43:04;8.90;;;3.03;;
70796;SDS011;63842;52.144;5.360;2022-10-16T10:45:41;7.85;;;1.90;;
70796;SDS011;63842;52.144;5.360;2022-10-16T10:56:06;9.30;;;1.85;;
70796;SDS011;63842;52.144;5.360;2022-10-16T11:01:13;8.05;;;2.22;;
70796;SDS011;63842;52.144;5.360;2022-10-16T11:03:45;7.80;;;1.90;;
70796;SDS011;63842;52.144;5.360;2022-10-16T11:08:43;10.35;;;1.90;;
70796;SDS011;63842;52.144;5.360;2022-10-16T11:11:20;8.90;;;2.25;;
70796;SDS011;63842;52.144;5.360;2022-10-16T11:16:21;10.43;;;2.17;;
70796;SDS011;63842;52.144;5.360;2022-10-16T11:18:52;10.85;;;2.13;;
70796;SDS011;63842;52.144;5.360;2022-10-16T11:21:23;11.98;;;2.47;;
70796;SDS011;63842;52.144;5.360;2022-10-16T11:24:14;9.13;;;2.10;;
70796;SDS011;63842;52.144;5.360;2022-10-16T11:26:43;10.15;;;1.92;;
70796;SDS011;63842;52.144;5.360;2022-10-16T11:29:13;8.63;;;1.75;;
70796;SDS011;63842;52.144;5.360;2022-10-16T11:31:50;9.98;;;2.15;;
70796;SDS011;63842;52.144;5.360;2022-10-16T11:37:10;8.68;;;1.95;;
70796;SDS011;63842;52.144;5.360;2022-10-16T11:39:38;7.07;;;1.85;;
70796;SDS011;63842;52.144;5.360;2022-10-16T11:42:13;11.95;;;2.10;;
70796;SDS011;63842;52.144;5.360;2022-10-16T11:47:43;11.82;;;1.90;;
70796;SDS011;63842;52.144;5.360;2022-10-16T11:55:23;6.20;;;1.65;;
70796;SDS011;63842;52.144;5.360;2022-10-16T11:58:00;6.38;;;1.92;;
70796;SDS011;63842;52.144;5.360;2022-10-16T12:03:10;9.52;;;1.90;;
70796;SDS011;63842;52.144;5.360;2022-10-16T12:05:46;10.18;;;1.83;;
70796;SDS011;63842;52.144;5.360;2022-10-16T12:08:17;7.80;;;1.95;;
70796;SDS011;63842;52.144;5.360;2022-10-16T12:10:45;6.28;;;2.17;;
70796;SDS011;63842;52.144;5.360;2022-10-16T12:13:33;13.00;;;2.33;;
70796;SDS011;63842;52.144;5.360;2022-10-16T12:16:05;5.22;;;1.60;;
70796;SDS011;63842;52.144;5.360;2022-10-16T12:18:32;6.57;;;1.90;;
70796;SDS011;63842;52.144;5.360;2022-10-16T12:21:00;8.70;;;1.80;;
70796;SDS011;63842;52.144;5.360;2022-10-16T12:23:32;9.30;;;1.98;;
70796;SDS011;63842;52.144;5.360;2022-10-16T12:26:00;10.07;;;1.83;;
70796;SDS011;63842;52.144;5.360;2022-10-16T12:28:29;8.43;;;1.98;;
70796;SDS011;63842;52.144;5.360;2022-10-16T12:33:36;6.60;;;1.88;;
70796;SDS011;63842;52.144;5.360;2022-10-16T12:36:13;7.65;;;1.90;;
70796;SDS011;63842;52.144;5.360;2022-10-16T12:38:48;10.15;;;2.10;;
70796;SDS011;63842;52.144;5.360;2022-10-16T12:41:32;6.90;;;1.60;;
70796;SDS011;63842;52.144;5.360;2022-10-16T12:44:01;7.65;;;1.80;;
70796;SDS011;63842;52.144;5.360;2022-10-16T12:51:54;7.03;;;1.52;;
70796;SDS011;63842;52.144;5.360;2022-10-16T12:54:30;10.20;;;1.50;;
70796;SDS011;63842;52.144;5.360;2022-10-16T12:57:09;6.97;;;1.30;;
70796;SDS011;63842;52.144;5.360;2022-10-16T13:00:03;8.10;;;1.50;;
70796;SDS011;63842;52.144;5.360;2022-10-16T13:05:03;7.13;;;1.30;;
70796;SDS011;63842;52.144;5.360;2022-10-16T13:13:22;7.40;;;2.13;;
70796;SDS011;63842;52.144;5.360;2022-10-16T13:18:04;6.65;;;1.50;;
70796;SDS011;63842;52.144;5.360;2022-10-16T13:23:23;7.85;;;1.65;;
70796;SDS011;63842;52.144;5.360;2022-10-16T13:26:08;8.02;;;1.20;;
70796;SDS011;63842;52.144;5.360;2022-10-16T13:28:38;9.95;;;1.85;;
70796;SDS011;63842;52.144;5.360;2022-10-16T13:31:09;6.45;;;1.55;;
70796;SDS011;63842;52.144;5.360;2022-10-16T13:33:42;10.23;;;1.38;;
70796;SDS011;63842;52.144;5.360;2022-10-16T13:39:37;7.28;;;1.42;;
70796;SDS011;63842;52.144;5.360;2022-10-16T13:41:46;8.98;;;1.40;;
70796;SDS011;63842;52.144;5.360;2022-10-16T13:44:28;8.80;;;1.38;;
70796;SDS011;63842;52.144;5.360;2022-10-16T13:46:58;6.05;;;1.20;;
70796;SDS011;63842;52.144;5.360;2022-10-16T13:49:26;9.82;;;1.35;;
70796;SDS011;63842;52.144;5.360;2022-10-16T13:51:54;8.07;;;1.27;;
70796;SDS011;63842;52.144;5.360;2022-10-16T13:54:22;7.63;;;1.40;;
70796;SDS011;63842;52.144;5.360;2022-10-16T13:56:50;10.77;;;1.73;;
70796;SDS011;63842;52.144;5.360;2022-10-16T13:59:35;12.02;;;1.65;;
70796;SDS011;63842;52.144;5.360;2022-10-16T14:04:32;8.48;;;1.73;;
70796;SDS011;63842;52.144;5.360;2022-10-16T14:09:28;11.55;;;1.77;;
70796;SDS011;63842;52.144;5.360;2022-10-16T14:11:57;9.05;;;1.40;;
70796;SDS011;63842;52.144;5.360;2022-10-16T14:14:26;8.38;;;1.60;;
70796;SDS011;63842;52.144;5.360;2022-10-16T14:16:54;7.38;;;1.45;;
70796;SDS011;63842;52.144;5.360;2022-10-16T14:19:28;5.57;;;1.90;;
70796;SDS011;63842;52.144;5.360;2022-10-16T14:21:56;8.65;;;1.60;;
70796;SDS011;63842;52.144;5.360;2022-10-16T14:26:57;7.85;;;1.42;;
70796;SDS011;63842;52.144;5.360;2022-10-16T14:29:25;8.38;;;1.80;;
70796;SDS011;63842;52.144;5.360;2022-10-16T14:34:36;10.85;;;1.60;;
70796;SDS011;63842;52.144;5.360;2022-10-16T14:37:08;8.48;;;1.58;;
70796;SDS011;63842;52.144;5.360;2022-10-16T14:39:36;12.82;;;1.60;;
70796;SDS011;63842;52.144;5.360;2022-10-16T14:42:03;8.93;;;1.60;;
70796;SDS011;63842;52.144;5.360;2022-10-16T14:44:31;10.98;;;1.77;;
70796;SDS011;63842;52.144;5.360;2022-10-16T14:47:16;8.55;;;1.73;;
70796;SDS011;63842;52.144;5.360;2022-10-16T14:49:48;9.60;;;1.70;;
70796;SDS011;63842;52.144;5.360;2022-10-16T14:52:15;10.07;;;1.42;;
70796;SDS011;63842;52.144;5.360;2022-10-16T14:54:43;10.88;;;1.35;;
70796;SDS011;63842;52.144;5.360;2022-10-16T14:57:17;9.70;;;1.83;;
70796;SDS011;63842;52.144;5.360;2022-10-16T14:59:45;6.40;;;1.45;;
70796;SDS011;63842;52.144;5.360;2022-10-16T15:02:27;6.82;;;1.35;;
70796;SDS011;63842;52.144;5.360;2022-10-16T15:04:55;5.80;;;1.35;;
70796;SDS011;63842;52.144;5.360;2022-10-16T15:07:23;10.32;;;1.60;;
70796;SDS011;63842;52.144;5.360;2022-10-16T15:09:50;9.43;;;1.63;;
70796;SDS011;63842;52.144;5.360;2022-10-16T15:12:18;6.47;;;1.60;;
70796;SDS011;63842;52.144;5.360;2022-10-16T15:14:45;11.50;;;1.73;;
70796;SDS011;63842;52.144;5.360;2022-10-16T15:17:12;8.23;;;1.83;;
70796;SDS011;63842;52.144;5.360;2022-10-16T15:19:45;8.63;;;1.40;;
70796;SDS011;63842;52.144;5.360;2022-10-16T15:22:12;10.80;;;1.52;;
70796;SDS011;63842;52.144;5.360;2022-10-16T15:24:39;8.45;;;1.95;;
70796;SDS011;63842;52.144;5.360;2022-10-16T15:27:06;6.57;;;1.50;;
70796;SDS011;63842;52.144;5.360;2022-10-16T15:29:34;7.47;;;1.42;;
70796;SDS011;63842;52.144;5.360;2022-10-16T15:32:01;7.18;;;1.80;;
70796;SDS011;63842;52.144;5.360;2022-10-16T15:34:28;9.07;;;1.85;;
70796;SDS011;63842;52.144;5.360;2022-10-16T15:36:56;7.55;;;1.40;;
70796;SDS011;63842;52.144;5.360;2022-10-16T15:39:24;7.55;;;1.63;;
70796;SDS011;63842;52.144;5.360;2022-10-16T15:41:51;8.38;;;1.88;;
70796;SDS011;63842;52.144;5.360;2022-10-16T15:44:20;12.32;;;1.90;;
70796;SDS011;63842;52.144;5.360;2022-10-16T15:46:49;9.98;;;1.90;;
70796;SDS011;63842;52.144;5.360;2022-10-16T15:49:16;6.05;;;1.88;;
70796;SDS011;63842;52.144;5.360;2022-10-16T15:51:44;8.10;;;1.73;;
70796;SDS011;63842;52.144;5.360;2022-10-16T15:54:12;7.10;;;1.70;;
70796;SDS011;63842;52.144;5.360;2022-10-16T15:56:39;11.50;;;2.05;;
70796;SDS011;63842;52.144;5.360;2022-10-16T15:59:07;8.73;;;2.30;;
70796;SDS011;63842;52.144;5.360;2022-10-16T16:01:34;7.90;;;2.40;;
70796;SDS011;63842;52.144;5.360;2022-10-16T16:04:02;9.77;;;2.80;;
70796;SDS011;63842;52.144;5.360;2022-10-16T16:06:40;11.13;;;2.80;;
70796;SDS011;63842;52.144;5.360;2022-10-16T16:09:11;10.45;;;2.95;;
70796;SDS011;63842;52.144;5.360;2022-10-16T16:11:39;13.48;;;2.85;;
70796;SDS011;63842;52.144;5.360;2022-10-16T16:14:06;12.25;;;3.15;;
70796;SDS011;63842;52.144;5.360;2022-10-16T16:16:33;13.68;;;3.35;;
70796;SDS011;63842;52.144;5.360;2022-10-16T16:19:04;11.80;;;3.63;;
70796;SDS011;63842;52.144;5.360;2022-10-16T16:21:36;10.35;;;3.17;;
70796;SDS011;63842;52.144;5.360;2022-10-16T16:24:04;20.15;;;3.58;;
70796;SDS011;63842;52.144;5.360;2022-10-16T16:26:35;22.92;;;3.50;;
70796;SDS011;63842;52.144;5.360;2022-10-16T16:29:05;13.88;;;2.95;;
70796;SDS011;63842;52.144;5.360;2022-10-16T16:31:33;12.55;;;2.92;;
70796;SDS011;63842;52.144;5.360;2022-10-16T16:34:01;16.35;;;2.97;;
70796;SDS011;63842;52.144;5.360;2022-10-16T16:36:29;16.13;;;3.38;;
70796;SDS011;63842;52.144;5.360;2022-10-16T16:38:56;10.10;;;2.63;;
70796;SDS011;63842;52.144;5.360;2022-10-16T16:41:28;11.25;;;2.67;;
70796;SDS011;63842;52.144;5.360;2022-10-16T16:44:01;9.27;;;2.50;;
70796;SDS011;63842;52.144;5.360;2022-10-16T16:46:28;11.00;;;2.15;;
70796;SDS011;63842;52.144;5.360;2022-10-16T16:48:57;13.23;;;2.65;;
70796;SDS011;63842;52.144;5.360;2022-10-16T16:51:24;8.48;;;1.90;;
70796;SDS011;63842;52.144;5.360;2022-10-16T16:53:52;19.05;;;2.58;;
70796;SDS011;63842;52.144;5.360;2022-10-16T16:56:20;12.20;;;2.83;;
70796;SDS011;63842;52.144;5.360;2022-10-16T16:58:48;16.20;;;2.90;;